Time;durP1;ratioP1;P1;durP2;ratioP2;P2;SDS_P1;SDS_P2;PMS_P1;PMS_P2;Temp;Humidity;BMP_temperature;BMP_pressure;BME280_temperature;BME280_humidity;BME280_pressure;Samples;Min_cycle;Max_cycle;Signal;HPM_P1;HPM_P2
2022/05/30 00:00:57;;;;;;;1.50;1.40;;;18.60;48.30;;;;;;4955025;28;20261;-60
2022/05/30 00:03:24;;;;;;;1.60;1.50;;;18.60;48.30;;;;;;4956684;28;20199;-60
2022/05/30 00:05:51;;;;;;;1.88;1.77;;;18.60;48.20;;;;;;4958868;28;20219;-60
2022/05/30 00:08:19;;;;;;;1.58;1.48;;;18.60;48.20;;;;;;4957736;28;20210;-61
2022/05/30 00:10:47;;;;;;;1.63;1.52;;;18.60;48.30;;;;;;4959056;28;20186;-60
2022/05/30 00:13:15;;;;;;;1.75;1.65;;;18.50;48.20;;;;;;4958941;28;20274;-60
2022/05/30 00:15:42;;;;;;;1.50;1.40;;;18.50;48.40;;;;;;4957560;28;20706;-60
2022/05/30 00:18:09;;;;;;;1.70;1.60;;;18.50;48.10;;;;;;4958892;28;20254;-60
2022/05/30 00:20:37;;;;;;;1.60;1.50;;;18.50;48.30;;;;;;4957669;28;20229;-60
2022/05/30 00:23:04;;;;;;;1.98;1.60;;;18.50;48.10;;;;;;4958998;28;20191;-60
2022/05/30 00:25:31;;;;;;;2.20;1.52;;;18.50;48.70;;;;;;4958617;28;20207;-60
2022/05/30 00:27:59;;;;;;;2.05;1.60;;;18.40;48.10;;;;;;4958886;28;20203;-60
2022/05/30 00:30:27;;;;;;;1.88;1.60;;;18.40;48.10;;;;;;4957580;28;20234;-61
2022/05/30 00:32:54;;;;;;;1.85;1.70;;;18.40;48.30;;;;;;4957271;28;20298;-60
2022/05/30 00:35:21;;;;;;;1.70;1.60;;;18.40;48.50;;;;;;4957079;28;20277;-60
2022/05/30 00:37:48;;;;;;;1.70;1.60;;;18.40;48.80;;;;;;4957505;28;20199;-60
2022/05/30 00:40:16;;;;;;;1.50;1.40;;;18.40;48.20;;;;;;4973245;28;20214;-60
2022/05/30 00:42:43;;;;;;;3.40;1.95;;;18.40;48.30;;;;;;4973169;28;20210;-60
2022/05/30 00:45:10;;;;;;;1.50;1.40;;;18.30;48.10;;;;;;4957247;28;20218;-60
2022/05/30 00:47:39;;;;;;;2.08;1.88;;;18.40;48.30;;;;;;4957052;28;20231;-60
2022/05/30 00:50:07;;;;;;;1.70;1.60;;;18.40;48.20;;;;;;4958319;28;20273;-60
2022/05/30 00:52:37;;;;;;;1.70;1.60;;;18.40;48.20;;;;;;4973057;28;20249;-60
2022/05/30 00:55:07;;;;;;;1.70;1.60;;;18.30;48.20;;;;;;4958356;28;20770;-60
2022/05/30 00:57:34;;;;;;;2.45;1.67;;;18.30;48.20;;;;;;4956992;28;20282;-60
2022/05/30 01:00:25;;;;;;;1.70;1.60;;;18.30;48.30;;;;;;4958401;29;20209;-60
2022/05/30 01:08:20;;;;;;;1.70;1.60;;;18.30;48.40;;;;;;4956705;28;20195;-60
2022/05/30 01:10:47;;;;;;;1.80;1.70;;;18.30;48.20;;;;;;4956655;28;20573;-60
2022/05/30 01:13:14;;;;;;;2.38;1.60;;;18.30;48.20;;;;;;4955999;28;20198;-60
2022/05/30 01:15:41;;;;;;;1.77;1.67;;;18.30;48.20;;;;;;4955939;28;20215;-60
2022/05/30 01:18:12;;;;;;;2.63;1.80;;;18.20;48.20;;;;;;4956543;28;20202;-61
2022/05/30 01:20:45;;;;;;;1.50;1.40;;;18.30;48.10;;;;;;4956455;28;20210;-61
2022/05/30 01:23:37;;;;;;;1.63;1.52;;;18.20;48.30;;;;;;4957741;28;20646;-60
2022/05/30 01:26:30;;;;;;;1.65;1.55;;;18.20;48.10;;;;;;4956630;28;20202;-60
2022/05/30 01:29:01;;;;;;;2.38;1.70;;;18.20;48.20;;;;;;4956438;28;20183;-60
2022/05/30 01:31:30;;;;;;;2.15;1.50;;;18.20;48.10;;;;;;4956478;28;20195;-60
2022/05/30 01:33:58;;;;;;;1.70;1.60;;;18.20;48.10;;;;;;4956516;28;20226;-60
2022/05/30 01:36:26;;;;;;;1.70;1.60;;;18.20;48.30;;;;;;4956956;28;20674;-60
2022/05/30 01:38:54;;;;;;;1.70;1.60;;;18.20;48.30;;;;;;4956447;28;20202;-60
2022/05/30 01:41:35;;;;;;;1.80;1.70;;;18.20;48.20;;;;;;4956930;28;20302;-60
2022/05/30 01:44:04;;;;;;;1.83;1.60;;;18.20;48.90;;;;;;4956009;28;20728;-60
2022/05/30 01:46:31;;;;;;;1.60;1.50;;;18.10;48.00;;;;;;4956181;28;20199;-60
2022/05/30 01:49:01;;;;;;;1.60;1.50;;;18.10;48.10;;;;;;4956578;28;20253;-60
2022/05/30 01:51:29;;;;;;;1.65;1.45;;;18.10;48.20;;;;;;4956304;28;20206;-60
2022/05/30 01:54:00;;;;;;;1.85;1.75;;;18.10;48.10;;;;;;4956471;28;20712;-60
2022/05/30 01:56:37;;;;;;;1.67;1.58;;;18.10;48.10;;;;;;4957582;28;20231;-60
2022/05/30 01:59:06;;;;;;;1.65;1.55;;;18.10;48.20;;;;;;4955815;28;20203;-61
2022/05/30 02:01:39;;;;;;;1.80;1.70;;;18.10;48.30;;;;;;4956892;28;20568;-60
2022/05/30 02:04:08;;;;;;;1.60;1.50;;;18.10;48.10;;;;;;4955630;28;20230;-60
2022/05/30 02:06:36;;;;;;;1.67;1.58;;;18.10;48.10;;;;;;4955643;28;20209;-60
2022/05/30 02:09:03;;;;;;;1.60;1.50;;;18.10;47.70;;;;;;4955838;28;20643;-60
2022/05/30 02:11:31;;;;;;;1.70;1.60;;;18.10;48.00;;;;;;4955803;28;20203;-60
2022/05/30 02:14:16;;;;;;;1.50;1.40;;;18.10;48.00;;;;;;4955732;28;20229;-60
2022/05/30 02:17:06;;;;;;;1.60;1.50;;;18.10;48.00;;;;;;4956954;28;20194;-60
2022/05/30 02:19:36;;;;;;;1.65;1.55;;;18.10;47.90;;;;;;4955786;28;20609;-60
2022/05/30 02:22:10;;;;;;;1.73;1.60;;;18.10;48.00;;;;;;4956745;28;20213;-60
2022/05/30 02:24:39;;;;;;;1.90;1.80;;;18.10;47.90;;;;;;4956113;28;20219;-60
2022/05/30 02:27:07;;;;;;;1.70;1.58;;;18.10;47.90;;;;;;4956207;28;20203;-60
2022/05/30 02:29:36;;;;;;;1.58;1.48;;;18.00;47.90;;;;;;4955466;28;20258;-60
2022/05/30 02:32:06;;;;;;;2.35;1.52;;;18.00;47.80;;;;;;4955601;28;20617;-60
2022/05/30 02:37:20;;;;;;;1.60;1.50;;;18.00;47.90;;;;;;4955341;28;20187;-60
2022/05/30 02:39:49;;;;;;;1.70;1.60;;;18.00;48.00;;;;;;4956382;28;20187;-60
2022/05/30 02:42:25;;;;;;;1.60;1.50;;;18.00;47.90;;;;;;4956234;28;20222;-60
2022/05/30 02:44:54;;;;;;;1.83;1.73;;;18.00;48.00;;;;;;4954899;28;20227;-60
2022/05/30 02:47:22;;;;;;;1.70;1.60;;;18.00;47.80;;;;;;4954887;28;20206;-59
2022/05/30 02:49:57;;;;;;;1.70;1.60;;;18.00;47.80;;;;;;4954858;28;20201;-60
2022/05/30 02:52:24;;;;;;;1.70;1.60;;;18.00;47.80;;;;;;4956231;28;20233;-60
2022/05/30 02:54:51;;;;;;;1.50;1.40;;;17.90;47.60;;;;;;4955883;28;20293;-60
2022/05/30 02:57:33;;;;;;;1.63;1.52;;;17.90;47.80;;;;;;4954886;28;20702;-60
2022/05/30 03:00:02;;;;;;;1.70;1.60;;;17.90;47.80;;;;;;4970811;28;20631;-59
2022/05/30 03:02:32;;;;;;;1.70;1.60;;;17.80;47.60;;;;;;4954571;28;20309;-60
2022/05/30 03:05:00;;;;;;;1.80;1.70;;;17.90;47.80;;;;;;4954544;28;20230;-60
2022/05/30 03:07:29;;;;;;;1.60;1.50;;;17.80;48.20;;;;;;4954838;29;20238;-60
2022/05/30 03:09:58;;;;;;;1.58;1.48;;;17.90;48.30;;;;;;4954750;28;20203;-59
2022/05/30 03:12:39;;;;;;;1.52;1.45;;;17.80;47.60;;;;;;4954737;28;20194;-60
2022/05/30 03:15:09;;;;;;;1.73;1.63;;;17.80;47.50;;;;;;4954429;28;20303;-60
2022/05/30 03:17:37;;;;;;;1.88;1.67;;;17.80;47.40;;;;;;4954611;28;20207;-60
2022/05/30 03:20:06;;;;;;;1.70;1.60;;;17.80;47.40;;;;;;4954382;28;20211;-60
2022/05/30 03:22:33;;;;;;;1.92;1.52;;;17.80;47.40;;;;;;4954466;28;20219;-60
2022/05/30 03:25:20;;;;;;;1.95;1.85;;;17.80;47.60;;;;;;4954661;28;20254;-61
2022/05/30 03:27:53;;;;;;;1.88;1.77;;;17.90;47.30;;;;;;4954260;28;20616;-60
2022/05/30 03:30:23;;;;;;;1.58;1.48;;;17.90;47.40;;;;;;4955497;28;20191;-60
2022/05/30 03:32:50;;;;;;;1.92;1.75;;;17.90;47.40;;;;;;4954168;28;20191;-60
2022/05/30 03:35:18;;;;;;;1.73;1.50;;;17.80;47.90;;;;;;4953962;28;20698;-60
2022/05/30 03:37:52;;;;;;;1.60;1.50;;;17.90;47.50;;;;;;4953813;28;20625;-60
2022/05/30 03:40:58;;;;;;;2.05;1.58;;;17.90;47.50;;;;;;4972456;28;20678;-60
2022/05/30 03:43:41;;;;;;;1.60;1.50;;;17.90;47.70;;;;;;4972745;28;20197;-60
2022/05/30 03:46:09;;;;;;;1.65;1.55;;;17.90;47.50;;;;;;4962658;28;20230;-60
2022/05/30 03:48:36;;;;;;;1.80;1.70;;;17.90;47.60;;;;;;4953950;28;20230;-60
2022/05/30 03:51:04;;;;;;;1.90;1.52;;;17.90;48.20;;;;;;4953960;28;20195;-60
2022/05/30 03:53:32;;;;;;;1.60;1.50;;;17.90;47.60;;;;;;4953906;28;20202;-60
2022/05/30 03:55:59;;;;;;;1.60;1.50;;;17.90;47.60;;;;;;4953854;28;20294;-60
2022/05/30 03:58:26;;;;;;;1.60;1.50;;;17.90;47.70;;;;;;4953877;28;20195;-60
2022/05/30 04:00:54;;;;;;;1.60;1.50;;;17.90;47.70;;;;;;4953786;28;20686;-60
2022/05/30 04:03:22;;;;;;;1.77;1.67;;;17.90;47.70;;;;;;4955115;28;20198;-60
2022/05/30 04:05:50;;;;;;;1.70;1.60;;;17.90;47.50;;;;;;4953961;28;20226;-60
2022/05/30 04:08:17;;;;;;;1.90;1.80;;;17.90;47.50;;;;;;4953936;28;20198;-60
2022/05/30 04:11:13;;;;;;;1.60;1.50;;;17.90;47.50;;;;;;4955506;28;20194;-60
2022/05/30 04:14:00;;;;;;;1.60;1.50;;;18.00;47.40;;;;;;4955132;28;20222;-60
2022/05/30 04:16:54;;;;;;;2.00;1.80;;;17.90;47.40;;;;;;4953775;28;20440;-59
2022/05/30 04:19:23;;;;;;;1.88;1.77;;;18.00;47.50;;;;;;4970228;28;20234;-60
2022/05/30 04:21:50;;;;;;;1.70;1.60;;;18.00;47.80;;;;;;4953886;28;20223;-60
2022/05/30 04:24:25;;;;;;;1.70;1.60;;;18.00;48.10;;;;;;4953808;28;20221;-60
2022/05/30 04:26:58;;;;;;;2.00;1.67;;;18.00;49.20;;;;;;4954022;28;20195;-61
2022/05/30 04:29:25;;;;;;;4.15;1.70;;;18.00;49.70;;;;;;4953604;28;20206;-60
2022/05/30 04:31:55;;;;;;;6.13;1.75;;;18.10;49.90;;;;;;4954872;28;20572;-61
2022/05/30 04:34:25;;;;;;;3.25;1.90;;;18.10;50.10;;;;;;4953522;28;20237;-61
2022/05/30 04:36:52;;;;;;;3.08;1.70;;;18.10;49.90;;;;;;4953790;28;20195;-61
2022/05/30 04:39:19;;;;;;;2.05;1.50;;;18.10;49.70;;;;;;4954938;28;20219;-61
2022/05/30 04:42:06;;;;;;;2.50;1.60;;;18.20;50.40;;;;;;4954735;28;20690;-62
2022/05/30 04:44:52;;;;;;;2.25;1.58;;;18.30;50.40;;;;;;4954641;28;20292;-61
2022/05/30 04:47:39;;;;;;;1.73;1.60;;;18.60;50.20;;;;;;4954478;28;20198;-62
2022/05/30 04:50:09;;;;;;;1.70;1.60;;;18.90;50.00;;;;;;4956934;28;20207;-61
2022/05/30 04:52:38;;;;;;;1.80;1.70;;;19.10;49.40;;;;;;4957883;28;20199;-61
2022/05/30 04:55:25;;;;;;;2.42;2.05;;;19.40;48.70;;;;;;4957992;28;20222;-61
2022/05/30 04:57:56;;;;;;;1.90;1.80;;;19.70;48.00;;;;;;4984501;23;20232;-69
2022/05/30 05:00:46;;;;;;;1.67;1.58;;;19.90;46.60;;;;;;4996115;28;20689;-69
2022/05/30 05:03:17;;;;;;;1.80;1.70;;;20.10;47.10;;;;;;5124898;23;20237;-69
2022/05/30 05:05:45;;;;;;;5.25;1.77;;;20.30;46.10;;;;;;5141721;23;20246;-69
2022/05/30 05:08:28;;;;;;;1.98;1.75;;;20.50;45.70;;;;;;5103234;23;20229;-69
2022/05/30 05:11:25;;;;;;;2.20;1.80;;;20.70;45.40;;;;;;4961030;28;20240;-69
2022/05/30 05:14:18;;;;;;;3.55;1.98;;;20.80;44.60;;;;;;4996730;28;20197;-69
2022/05/30 05:17:06;;;;;;;2.65;2.05;;;21.00;44.30;;;;;;4996677;28;20185;-69
2022/05/30 05:19:33;;;;;;;1.95;1.85;;;21.10;43.70;;;;;;4976120;28;20198;-69
2022/05/30 05:22:02;;;;;;;2.65;1.92;;;21.20;43.30;;;;;;4976251;28;20221;-69
2022/05/30 05:24:30;;;;;;;2.40;1.73;;;21.40;43.20;;;;;;4976217;28;20208;-69
2022/05/30 05:27:20;;;;;;;1.90;1.80;;;21.40;42.90;;;;;;4976760;28;20194;-69
2022/05/30 05:29:49;;;;;;;2.80;1.90;;;21.50;42.50;;;;;;4975938;28;20285;-70
2022/05/30 05:32:16;;;;;;;3.33;2.22;;;21.60;42.50;;;;;;4975929;28;20198;-69
2022/05/30 05:34:44;;;;;;;3.72;2.13;;;21.70;42.50;;;;;;4975645;28;20210;-69
2022/05/30 05:37:13;;;;;;;3.15;2.28;;;21.80;42.20;;;;;;4975788;28;20261;-69
2022/05/30 05:39:50;;;;;;;2.63;2.20;;;21.90;42.10;;;;;;4975688;28;20201;-69
2022/05/30 05:42:17;;;;;;;2.50;2.30;;;22.00;41.90;;;;;;4975740;28;20221;-69
2022/05/30 05:44:46;;;;;;;2.17;1.90;;;22.10;41.70;;;;;;4975618;28;20284;-70
2022/05/30 05:47:13;;;;;;;2.40;2.20;;;22.10;41.40;;;;;;4975481;28;20198;-69
2022/05/30 05:49:40;;;;;;;2.53;2.05;;;22.20;41.30;;;;;;4975474;28;20198;-69
2022/05/30 05:52:08;;;;;;;2.75;2.08;;;22.30;41.20;;;;;;4975360;28;20732;-69
2022/05/30 05:54:37;;;;;;;3.08;1.95;;;22.40;41.00;;;;;;4975510;28;20193;-70
2022/05/30 05:57:07;;;;;;;2.97;1.98;;;22.50;40.90;;;;;;4975671;28;20201;-69
2022/05/30 05:59:45;;;;;;;2.58;2.00;;;22.50;40.70;;;;;;5101379;23;20200;-70
2022/05/30 06:02:12;;;;;;;2.08;1.90;;;22.60;40.40;;;;;;4956355;28;20221;-69
2022/05/30 06:04:39;;;;;;;2.65;2.00;;;22.70;40.30;;;;;;4956185;28;20199;-69
2022/05/30 06:07:25;;;;;;;2.67;2.03;;;22.80;40.20;;;;;;4954586;29;20219;-69
2022/05/30 06:10:09;;;;;;;2.65;2.20;;;22.90;40.00;;;;;;4937388;29;20211;-69
2022/05/30 06:13:05;;;;;;;1.83;1.70;;;23.00;40.10;;;;;;4933536;29;20191;-69
2022/05/30 06:15:32;;;;;;;1.85;1.70;;;23.10;39.80;;;;;;4937829;29;20191;-69
2022/05/30 06:18:08;;;;;;;2.30;2.10;;;23.20;39.70;;;;;;4937155;29;20722;-70
2022/05/30 06:20:37;;;;;;;2.30;2.10;;;23.20;39.60;;;;;;4936599;29;20206;-69
2022/05/30 06:23:05;;;;;;;2.67;1.92;;;23.30;39.40;;;;;;5368918;23;20324;-69
2022/05/30 06:25:52;;;;;;;2.25;2.03;;;23.40;39.60;;;;;;4995497;28;20189;-67
2022/05/30 06:28:46;;;;;;;2.28;2.08;;;23.50;39.40;;;;;;4980178;28;20218;-69
2022/05/30 06:31:15;;;;;;;4.50;2.00;;;23.50;39.20;;;;;;4974980;28;20202;-68
2022/05/30 06:33:43;;;;;;;5.35;2.10;;;23.60;39.10;;;;;;4974787;28;20281;-69
2022/05/30 06:36:14;;;;;;;3.85;1.90;;;23.70;38.90;;;;;;4974740;28;20202;-69
2022/05/30 06:38:42;;;;;;;2.70;1.67;;;23.80;39.00;;;;;;4974599;28;20626;-69
2022/05/30 06:41:21;;;;;;;3.30;1.98;;;23.90;38.80;;;;;;4974599;28;20209;-69
2022/05/30 06:43:48;;;;;;;3.35;2.10;;;24.00;38.80;;;;;;4974524;28;20592;-69
2022/05/30 06:46:34;;;;;;;3.78;2.20;;;24.00;38.60;;;;;;4976075;28;20317;-68
2022/05/30 06:49:34;;;;;;;3.55;2.00;;;24.10;38.30;;;;;;4975601;28;20202;-69
2022/05/30 06:52:04;;;;;;;5.15;2.03;;;24.20;38.40;;;;;;4975535;28;20249;-69
2022/05/30 06:54:31;;;;;;;3.30;1.90;;;24.30;38.40;;;;;;4975824;28;20190;-69
2022/05/30 06:59:44;;;;;;;3.58;2.00;;;24.40;37.90;;;;;;4975429;28;20580;-70
2022/05/30 07:02:12;;;;;;;2.28;1.70;;;24.50;37.90;;;;;;4974688;28;20706;-69
2022/05/30 07:04:58;;;;;;;3.25;1.95;;;24.50;37.90;;;;;;5819738;23;20207;-69
2022/05/30 07:07:43;;;;;;;4.53;2.10;;;24.60;37.80;;;;;;5157667;23;20245;-69
2022/05/30 07:15:55;;;;;;;2.28;1.80;;;24.80;37.30;;;;;;5468964;23;20236;-69
2022/05/30 07:18:26;;;;;;;3.25;1.83;;;24.80;37.80;;;;;;5192477;23;20204;-69
2022/05/30 07:20:58;;;;;;;3.20;1.88;;;24.90;37.90;;;;;;4993304;28;20200;-68
2022/05/30 07:23:28;;;;;;;2.63;1.75;;;24.90;37.90;;;;;;4994421;28;20209;-68
2022/05/30 07:26:23;;;;;;;3.00;2.00;;;25.00;37.80;;;;;;5933374;23;20183;-69
2022/05/30 07:29:09;;;;;;;2.88;2.10;;;25.10;37.70;;;;;;4977560;28;20220;-67
2022/05/30 07:31:59;;;;;;;2.83;1.88;;;25.10;37.40;;;;;;4975852;28;20668;-67
2022/05/30 07:34:58;;;;;;;4.93;2.10;;;25.10;37.40;;;;;;4963402;28;20288;-67
2022/05/30 07:37:52;;;;;;;2.72;1.80;;;25.20;37.40;;;;;;4966822;28;20249;-67
2022/05/30 07:40:45;;;;;;;3.25;1.80;;;25.30;37.30;;;;;;4966710;28;20683;-67
2022/05/30 07:43:44;;;;;;;3.03;2.00;;;25.30;38.00;;;;;;4973749;28;20729;-67
2022/05/30 07:46:44;;;;;;;2.05;1.80;;;25.40;37.20;;;;;;4974050;28;20678;-66
2022/05/30 07:49:26;;;;;;;2.15;1.73;;;25.40;37.20;;;;;;4973412;28;20784;-68
2022/05/30 07:51:58;;;;;;;3.65;1.95;;;25.40;37.00;;;;;;4973491;28;20194;-67
2022/05/30 07:54:39;;;;;;;2.15;1.80;;;25.50;37.00;;;;;;4973563;28;20198;-67
2022/05/30 07:57:18;;;;;;;2.38;2.00;;;25.50;37.00;;;;;;4973532;28;20201;-67
2022/05/30 07:59:46;;;;;;;2.50;1.80;;;25.50;36.80;;;;;;4974030;28;20667;-68
2022/05/30 08:02:14;;;;;;;1.63;1.50;;;25.50;36.70;;;;;;4973416;28;20202;-68
2022/05/30 08:04:45;;;;;;;1.90;1.70;;;25.60;36.70;;;;;;4973905;28;20636;-68
2022/05/30 08:07:31;;;;;;;2.92;1.83;;;25.60;37.20;;;;;;4974521;28;20718;-68
2022/05/30 08:10:19;;;;;;;2.15;1.75;;;25.60;36.50;;;;;;4973711;28;20273;-67
2022/05/30 08:12:48;;;;;;;1.73;1.58;;;25.70;36.50;;;;;;4973406;28;20268;-68
2022/05/30 08:15:24;;;;;;;1.90;1.80;;;25.70;36.50;;;;;;4973562;28;20201;-67
2022/05/30 08:18:14;;;;;;;2.13;1.70;;;25.70;36.40;;;;;;4973993;28;20226;-67
2022/05/30 08:20:43;;;;;;;1.60;1.50;;;25.70;36.40;;;;;;4973217;28;20222;-68
2022/05/30 08:23:10;;;;;;;1.70;1.60;;;25.80;36.40;;;;;;4974103;28;20244;-67
2022/05/30 08:25:37;;;;;;;2.22;1.90;;;25.80;36.30;;;;;;4977277;28;20209;-68
2022/05/30 08:28:04;;;;;;;3.28;1.75;;;25.80;36.20;;;;;;4976961;28;20236;-67
2022/05/30 08:30:31;;;;;;;1.73;1.35;;;25.80;36.30;;;;;;4976839;28;20202;-67
2022/05/30 08:33:22;;;;;;;2.33;1.70;;;25.80;36.10;;;;;;4977678;28;20190;-67
2022/05/30 08:36:22;;;;;;;1.67;1.58;;;25.90;36.10;;;;;;4977190;28;20198;-67
2022/05/30 08:41:46;;;;;;;1.50;1.40;;;25.90;36.10;;;;;;4976699;28;20214;-67
2022/05/30 08:41:48;;;;;;;1.67;1.50;;;25.90;36.00;;;;;;4977009;28;20206;-67
2022/05/30 08:44:38;;;;;;;2.28;1.75;;;25.90;36.00;;;;;;4977263;28;20292;-67
2022/05/30 08:47:26;;;;;;;1.75;1.60;;;26.00;36.00;;;;;;4976755;28;20198;-67
2022/05/30 08:49:54;;;;;;;2.08;1.55;;;26.00;35.90;;;;;;4977173;28;20586;-68
2022/05/30 08:52:37;;;;;;;2.92;1.60;;;26.00;35.70;;;;;;4976792;28;20209;-66
2022/05/30 08:55:09;;;;;;;1.70;1.60;;;26.00;35.80;;;;;;4976646;28;20616;-67
2022/05/30 08:57:45;;;;;;;2.30;1.73;;;26.10;35.70;;;;;;4976558;28;20225;-67
2022/05/30 09:00:16;;;;;;;1.85;1.67;;;26.10;35.70;;;;;;4976912;28;20194;-67
2022/05/30 09:03:07;;;;;;;1.70;1.60;;;26.10;35.60;;;;;;4967206;28;20222;-67
2022/05/30 09:05:35;;;;;;;2.10;1.38;;;26.10;35.60;;;;;;4977308;28;20202;-67
2022/05/30 09:08:05;;;;;;;1.50;1.40;;;26.10;35.60;;;;;;4976367;28;20272;-67
2022/05/30 09:10:40;;;;;;;1.90;1.70;;;26.10;35.60;;;;;;4976847;28;20223;-67
2022/05/30 09:13:15;;;;;;;1.98;1.45;;;26.10;35.70;;;;;;4977111;28;20221;-68
2022/05/30 09:16:04;;;;;;;2.38;1.60;;;26.10;35.80;;;;;;4976529;28;20198;-67
2022/05/30 09:18:34;;;;;;;1.63;1.50;;;26.00;35.80;;;;;;4976400;28;20628;-67
2022/05/30 09:21:03;;;;;;;1.63;1.40;;;26.00;35.70;;;;;;4976492;28;20759;-67
2022/05/30 09:23:31;;;;;;;1.50;1.40;;;26.00;35.60;;;;;;4976206;28;20301;-67
2022/05/30 09:26:01;;;;;;;1.95;1.50;;;26.00;35.50;;;;;;4976322;28;20194;-67
2022/05/30 09:28:39;;;;;;;1.70;1.60;;;26.00;35.50;;;;;;4977430;28;20217;-67
2022/05/30 09:31:28;;;;;;;1.75;1.50;;;26.00;35.50;;;;;;4977127;28;20269;-67
2022/05/30 09:34:45;;;;;;;1.40;1.30;;;26.00;35.70;;;;;;4955342;28;20747;-67
2022/05/30 09:37:32;;;;;;;1.60;1.50;;;25.90;35.70;;;;;;4956027;29;20636;-68
2022/05/30 09:40:15;;;;;;;1.40;1.30;;;25.90;35.80;;;;;;4972524;28;20206;-67
2022/05/30 09:43:14;;;;;;;1.90;1.60;;;25.90;35.90;;;;;;4975671;28;20300;-67
2022/05/30 09:45:42;;;;;;;2.05;1.60;;;25.90;36.00;;;;;;4975467;28;20671;-68
2022/05/30 09:48:12;;;;;;;2.97;1.50;;;25.90;36.10;;;;;;4976835;28;20654;-67
2022/05/30 09:51:00;;;;;;;1.60;1.50;;;25.80;36.20;;;;;;4976522;28;20202;-67
2022/05/30 09:53:42;;;;;;;1.83;1.55;;;25.80;36.30;;;;;;4975660;28;20197;-68
2022/05/30 09:56:13;;;;;;;2.20;1.50;;;25.70;36.40;;;;;;4975870;28;20289;-68
2022/05/30 09:58:42;;;;;;;1.50;1.40;;;25.60;36.40;;;;;;4975348;28;20218;-67
2022/05/30 10:01:25;;;;;;;1.85;1.60;;;25.60;36.50;;;;;;4975644;28;20289;-68
2022/05/30 10:03:59;;;;;;;1.60;1.50;;;25.60;36.70;;;;;;4975288;28;20749;-67
2022/05/30 10:06:35;;;;;;;1.70;1.60;;;25.60;36.80;;;;;;4976927;28;20550;-67
2022/05/30 10:09:23;;;;;;;1.60;1.50;;;25.50;36.80;;;;;;4975500;28;20226;-67
2022/05/30 10:11:55;;;;;;;1.30;1.15;;;25.40;37.00;;;;;;4975171;28;20707;-67
2022/05/30 10:14:23;;;;;;;1.85;1.60;;;25.40;37.20;;;;;;4975103;28;20186;-70
2022/05/30 10:17:14;;;;;;;1.50;1.40;;;25.30;37.40;;;;;;4975949;28;20198;-70
2022/05/30 10:19:42;;;;;;;1.60;1.50;;;25.20;37.50;;;;;;4974930;28;20198;-70
2022/05/30 10:28:49;;;;;;;1.50;1.40;;;25.00;37.90;;;;;;4975895;28;20709;-68
2022/05/30 10:31:29;;;;;;;1.60;1.50;;;24.80;38.60;;;;;;4976343;28;20190;-68
2022/05/30 10:34:19;;;;;;;1.45;1.35;;;24.70;38.10;;;;;;4974748;28;20610;-68
2022/05/30 10:36:55;;;;;;;1.40;1.30;;;24.70;38.20;;;;;;4975838;28;20216;-69
2022/05/30 10:39:35;;;;;;;1.55;1.45;;;24.70;38.20;;;;;;4974555;28;20289;-69
2022/05/30 10:42:04;;;;;;;1.90;1.40;;;24.70;38.20;;;;;;4974639;28;20198;-69
2022/05/30 10:44:33;;;;;;;1.73;1.30;;;24.70;38.20;;;;;;4974419;28;20650;-68
2022/05/30 10:47:07;;;;;;;1.85;1.50;;;24.70;38.30;;;;;;4974918;28;20225;-69
2022/05/30 10:49:39;;;;;;;1.73;1.60;;;24.70;38.30;;;;;;4974644;28;20228;-68
2022/05/30 10:52:08;;;;;;;1.50;1.40;;;24.70;38.40;;;;;;4974379;28;20560;-68
2022/05/30 10:54:47;;;;;;;1.30;1.30;;;24.60;38.50;;;;;;4975249;28;20218;-69
2022/05/30 10:57:20;;;;;;;1.50;1.40;;;24.60;38.60;;;;;;4974763;28;20205;-70
2022/05/30 10:59:50;;;;;;;1.50;1.40;;;24.50;38.60;;;;;;4974768;28;20194;-68
2022/05/30 11:02:22;;;;;;;1.90;1.33;;;24.50;39.20;;;;;;4974520;28;20277;-69
2022/05/30 11:04:51;;;;;;;1.83;1.50;;;24.50;38.70;;;;;;4975552;28;20204;-68
2022/05/30 11:07:43;;;;;;;1.42;1.35;;;24.40;38.80;;;;;;4974499;28;20201;-68
2022/05/30 11:10:19;;;;;;;1.40;1.30;;;24.40;38.90;;;;;;4974852;28;20285;-68
2022/05/30 11:12:47;;;;;;;1.30;1.20;;;24.30;39.00;;;;;;4974049;28;20612;-69
2022/05/30 11:15:20;;;;;;;1.48;1.38;;;24.30;39.00;;;;;;4973969;28;20209;-68
2022/05/30 11:18:15;;;;;;;1.50;1.40;;;24.40;39.10;;;;;;4967142;28;20214;-68
2022/05/30 11:21:02;;;;;;;1.40;1.30;;;24.40;39.00;;;;;;4973828;28;20686;-68
2022/05/30 11:23:29;;;;;;;1.60;1.50;;;24.40;39.00;;;;;;4974599;28;20213;-68
2022/05/30 11:26:40;;;;;;;1.50;1.40;;;24.40;39.00;;;;;;4973845;28;20305;-68
2022/05/30 11:29:19;;;;;;;1.50;1.40;;;24.40;39.00;;;;;;4975093;28;20214;-68
2022/05/30 11:31:50;;;;;;;1.58;1.30;;;24.40;39.00;;;;;;4973647;28;20289;-68
2022/05/30 11:34:35;;;;;;;1.45;1.35;;;24.40;39.00;;;;;;4973573;28;20202;-69
2022/05/30 11:37:31;;;;;;;1.70;1.42;;;24.50;39.00;;;;;;4973859;28;20200;-68
2022/05/30 11:40:06;;;;;;;1.38;1.30;;;24.40;38.80;;;;;;4974873;28;20631;-68
2022/05/30 11:42:37;;;;;;;1.58;1.45;;;24.40;38.90;;;;;;4973633;28;20211;-68
2022/05/30 11:45:08;;;;;;;1.20;1.20;;;24.40;39.00;;;;;;4973530;28;20257;-68
2022/05/30 11:47:48;;;;;;;1.48;1.38;;;24.40;39.10;;;;;;4973601;28;20230;-68
2022/05/30 11:50:27;;;;;;;1.60;1.50;;;24.30;39.10;;;;;;4975162;28;20201;-68
2022/05/30 11:53:34;;;;;;;1.40;1.30;;;24.30;39.20;;;;;;4973583;28;20193;-68
2022/05/30 11:56:05;;;;;;;1.50;1.40;;;24.30;39.20;;;;;;4975164;28;20190;-68
2022/05/30 11:58:51;;;;;;;1.45;1.35;;;24.30;39.30;;;;;;4976740;28;20283;-68
2022/05/30 12:01:18;;;;;;;1.40;1.30;;;24.20;39.90;;;;;;4979804;28;20216;-68
2022/05/30 12:04:13;;;;;;;1.50;1.40;;;24.20;39.30;;;;;;4979686;28;20217;-68
2022/05/30 12:07:12;;;;;;;1.55;1.35;;;24.20;39.30;;;;;;4979824;28;20194;-68
2022/05/30 12:09:55;;;;;;;1.30;1.20;;;24.20;39.40;;;;;;4979951;28;20205;-68
2022/05/30 12:12:29;;;;;;;1.40;1.30;;;24.20;39.40;;;;;;4979822;28;20218;-68
2022/05/30 12:15:41;;;;;;;1.40;1.30;;;24.10;39.40;;;;;;4981430;28;20185;-68
2022/05/30 12:24:33;;;;;;;1.60;1.48;;;24.10;39.40;;;;;;4980805;28;20202;-68
2022/05/30 12:27:02;;;;;;;1.30;1.20;;;24.10;39.50;;;;;;4980683;28;20698;-68
2022/05/30 12:29:46;;;;;;;1.50;1.40;;;24.10;39.60;;;;;;4979503;28;20198;-68
2022/05/30 12:32:16;;;;;;;1.38;1.27;;;24.00;39.70;;;;;;4979535;28;20252;-68
2022/05/30 12:35:27;;;;;;;1.30;1.20;;;24.00;39.90;;;;;;4979648;28;20200;-68
2022/05/30 12:38:20;;;;;;;1.40;1.30;;;24.00;39.90;;;;;;4979759;28;20253;-68
2022/05/30 12:40:55;;;;;;;1.48;1.20;;;23.90;39.80;;;;;;4977700;28;20576;-69
2022/05/30 12:43:35;;;;;;;1.52;1.42;;;23.90;39.80;;;;;;4979513;28;20277;-68
2022/05/30 12:46:19;;;;;;;1.50;1.40;;;23.90;39.80;;;;;;4979634;28;20193;-68
2022/05/30 12:49:03;;;;;;;1.60;1.50;;;23.90;39.80;;;;;;4979660;28;20242;-68
2022/05/30 12:51:42;;;;;;;1.40;1.30;;;23.90;40.50;;;;;;4977878;28;20210;-68
2022/05/30 12:54:22;;;;;;;1.30;1.20;;;23.90;40.00;;;;;;4980966;28;20186;-68
2022/05/30 12:57:09;;;;;;;1.42;1.33;;;23.80;40.60;;;;;;4979325;28;20186;-68
2022/05/30 12:59:59;;;;;;;1.20;1.10;;;23.80;40.00;;;;;;4979459;28;20205;-68
2022/05/30 13:02:47;;;;;;;1.40;1.30;;;23.80;40.00;;;;;;4979374;28;20206;-68
2022/05/30 13:05:17;;;;;;;1.20;1.20;;;23.80;40.00;;;;;;4979431;28;20595;-69
2022/05/30 13:07:45;;;;;;;1.40;1.30;;;23.80;40.00;;;;;;5191420;23;20240;-71
2022/05/30 13:10:13;;;;;;;1.30;1.20;;;23.80;40.10;;;;;;4997454;28;20252;-72
2022/05/30 13:12:56;;;;;;;1.10;1.10;;;23.80;40.10;;;;;;4996410;28;20673;-72
2022/05/30 13:15:37;;;;;;;1.45;1.30;;;23.80;40.10;;;;;;4995791;28;20200;-72
2022/05/30 13:18:10;;;;;;;1.50;1.30;;;23.80;40.00;;;;;;4979221;28;20221;-72
2022/05/30 13:20:45;;;;;;;1.55;1.23;;;23.80;40.00;;;;;;4976101;28;20563;-72
2022/05/30 13:23:12;;;;;;;1.40;1.30;;;23.80;40.10;;;;;;4977328;28;20190;-72
2022/05/30 13:25:42;;;;;;;1.50;1.40;;;23.80;40.10;;;;;;4975964;28;20348;-71
2022/05/30 13:28:11;;;;;;;1.77;1.27;;;23.80;40.10;;;;;;4977118;28;20218;-72
2022/05/30 13:30:38;;;;;;;1.23;1.23;;;23.80;40.10;;;;;;4975982;28;20202;-71
2022/05/30 13:33:13;;;;;;;1.33;1.23;;;23.80;40.10;;;;;;4975836;28;20208;-71
2022/05/30 13:35:42;;;;;;;1.58;1.38;;;23.80;40.20;;;;;;4975944;28;20190;-71
2022/05/30 13:38:11;;;;;;;1.20;1.20;;;23.80;40.10;;;;;;4977123;28;20257;-71
2022/05/30 13:40:39;;;;;;;1.20;1.20;;;23.80;40.10;;;;;;4976950;28;20202;-72
2022/05/30 13:43:08;;;;;;;1.52;1.30;;;23.80;40.20;;;;;;4975970;28;20230;-71
2022/05/30 13:45:36;;;;;;;1.15;1.15;;;23.80;40.20;;;;;;4975605;28;20584;-71
2022/05/30 13:48:05;;;;;;;1.33;1.23;;;23.80;40.20;;;;;;4975978;28;20218;-69
2022/05/30 13:50:47;;;;;;;1.10;1.10;;;23.80;40.30;;;;;;4976520;28;20198;-70
2022/05/30 13:53:15;;;;;;;1.48;1.35;;;23.80;40.30;;;;;;4976216;28;20338;-70
2022/05/30 13:55:52;;;;;;;1.38;1.27;;;23.70;40.20;;;;;;4976238;28;20608;-70
2022/05/30 13:58:19;;;;;;;1.42;1.33;;;23.70;40.20;;;;;;4975352;28;20279;-70
2022/05/30 14:00:46;;;;;;;1.40;1.30;;;23.70;40.30;;;;;;4975284;28;20202;-70